createdAt,value
2023-01-23T00:01:35.872Z,-1.94
2023-01-23T00:04:03.549Z,-2.04
2023-01-23T00:06:30.868Z,-1.92
2023-01-23T00:08:58.316Z,-1.92
2023-01-23T00:11:28.614Z,-1.94
2023-01-23T00:13:57.314Z,-1.96
2023-01-23T00:16:26.055Z,-1.99
2023-01-23T00:18:52.835Z,-2.14
2023-01-23T00:21:23.953Z,-2.01
2023-01-23T00:23:56.195Z,-2.03
2023-01-23T00:26:28.052Z,-2.10
2023-01-23T00:28:55.917Z,-1.99
2023-01-23T00:31:25.674Z,-2.00
2023-01-23T00:33:58.555Z,-1.95
2023-01-23T00:36:29.162Z,-1.95
2023-01-23T00:38:56.805Z,-1.95
2023-01-23T00:41:24.121Z,-1.90
2023-01-23T00:43:52.372Z,-1.87
2023-01-23T00:46:21.043Z,-1.86
2023-01-23T00:48:48.020Z,-1.92
2023-01-23T00:51:16.077Z,-1.82
2023-01-23T00:53:43.499Z,-1.86
2023-01-23T00:56:10.790Z,-1.91
2023-01-23T00:58:37.848Z,-1.92
2023-01-23T01:01:04.740Z,-1.88
2023-01-23T01:03:31.495Z,-1.89
2023-01-23T01:05:58.368Z,-1.87
2023-01-23T01:08:25.237Z,-1.86
2023-01-23T01:10:52.095Z,-1.83
2023-01-23T01:13:21.552Z,-1.82
2023-01-23T01:15:49.560Z,-1.82
2023-01-23T01:18:16.678Z,-1.82
2023-01-23T01:20:44.433Z,-1.83
2023-01-23T01:23:14.592Z,-1.96
2023-01-23T01:25:41.722Z,-1.80
2023-01-23T01:28:08.568Z,-1.79
2023-01-23T01:30:36.941Z,-1.96
2023-01-23T01:33:04.767Z,-1.77
2023-01-23T01:35:31.880Z,-1.81
2023-01-23T01:37:58.941Z,-1.78
2023-01-23T01:40:29.193Z,-1.81
2023-01-23T01:43:05.757Z,-1.84
2023-01-23T01:46:03.031Z,-1.80
2023-01-23T01:48:58.744Z,-1.80
2023-01-23T01:51:44.264Z,-1.80
2023-01-23T01:54:23.673Z,-1.86
2023-01-23T01:56:59.594Z,-1.84
2023-01-23T01:59:31.208Z,-1.85
2023-01-23T02:02:09.630Z,-1.89
2023-01-23T02:04:42.220Z,-2.03
2023-01-23T02:07:19.248Z,-1.88
2023-01-23T02:09:47.333Z,-1.84
2023-01-23T02:12:14.115Z,-1.86
2023-01-23T02:14:41.560Z,-1.85
2023-01-23T02:17:08.611Z,-1.88
2023-01-23T02:19:44.484Z,-1.88
2023-01-23T02:22:40.224Z,-1.82
2023-01-23T02:25:36.817Z,-1.88
2023-01-23T02:28:03.774Z,-2.00
2023-01-23T02:30:30.502Z,-2.00
2023-01-23T02:33:10.550Z,-2.01
2023-01-23T02:35:37.664Z,-1.97
2023-01-23T02:38:06.358Z,-1.94
2023-01-23T02:40:39.026Z,-1.95
2023-01-23T02:43:08.516Z,-1.95
2023-01-23T02:45:37.605Z,-1.93
2023-01-23T02:48:06.294Z,-1.91
2023-01-23T02:50:33.043Z,-1.91
2023-01-23T02:52:59.814Z,-1.92
2023-01-23T02:55:29.750Z,-1.96
2023-01-23T02:58:17.109Z,-1.96
2023-01-23T03:00:44.084Z,-1.95
2023-01-23T03:03:11.219Z,-2.00
2023-01-23T03:05:40.132Z,-1.99
2023-01-23T03:08:06.959Z,-2.00
2023-01-23T03:10:33.708Z,-2.00
2023-01-23T03:13:04.667Z,-2.04
2023-01-23T03:15:31.683Z,-2.08
2023-01-23T03:17:58.448Z,-2.09
2023-01-23T03:20:27.016Z,-2.07
2023-01-23T03:22:54.534Z,-2.05
2023-01-23T03:25:21.345Z,-2.09
2023-01-23T03:27:48.527Z,-2.08
2023-01-23T03:30:17.202Z,-2.10
2023-01-23T03:32:52.768Z,-2.12
2023-01-23T03:35:22.791Z,-2.13
2023-01-23T03:37:49.823Z,-2.14
2023-01-23T03:40:42.200Z,-2.10
2023-01-23T03:43:09.539Z,-2.08
2023-01-23T03:45:36.409Z,-2.14
2023-01-23T03:48:05.443Z,-2.17
2023-01-23T03:50:33.116Z,-2.16
2023-01-23T03:52:59.908Z,-2.13
2023-01-23T03:55:26.699Z,-2.13
2023-01-23T03:57:53.564Z,-2.15
2023-01-23T04:00:20.796Z,-2.14
2023-01-23T04:02:47.673Z,-2.14
2023-01-23T04:05:16.446Z,-2.12
2023-01-23T04:07:43.181Z,-2.09
2023-01-23T04:13:01.840Z,-2.12
2023-01-23T04:15:36.260Z,-2.13
2023-01-23T04:18:02.948Z,-2.13
2023-01-23T04:20:29.738Z,-2.14
2023-01-23T04:22:56.986Z,-2.16
2023-01-23T04:25:23.862Z,-2.19
2023-01-23T04:27:50.559Z,-2.29
2023-01-23T04:30:17.634Z,-2.24
2023-01-23T04:32:44.398Z,-2.21
2023-01-23T04:35:11.117Z,-2.18
2023-01-23T04:37:37.876Z,-2.17
2023-01-23T04:40:05.109Z,-2.13
2023-01-23T04:42:31.784Z,-2.13
2023-01-23T04:44:58.494Z,-2.30
2023-01-23T04:47:25.326Z,-2.15
2023-01-23T04:49:52.000Z,-2.14
2023-01-23T04:52:21.460Z,-2.15
2023-01-23T04:54:48.310Z,-2.14
2023-01-23T04:57:15.176Z,-2.14
2023-01-23T04:59:41.911Z,-2.10
2023-01-23T05:02:09.851Z,-2.09
2023-01-23T05:04:37.074Z,-2.21
2023-01-23T05:07:04.161Z,-2.06
2023-01-23T05:09:30.936Z,-2.06
2023-01-23T05:11:57.729Z,-2.10
2023-01-23T05:14:25.458Z,-2.13
2023-01-23T05:16:54.468Z,-2.15
2023-01-23T05:19:21.094Z,-2.18
2023-01-23T05:21:47.880Z,-2.19
2023-01-23T05:24:14.880Z,-2.22
2023-01-23T05:26:42.803Z,-2.24
2023-01-23T05:29:09.618Z,-2.20
2023-01-23T05:31:36.465Z,-2.19
2023-01-23T05:34:03.304Z,-2.18
2023-01-23T05:36:30.074Z,-2.19
2023-01-23T05:38:56.833Z,-2.19
2023-01-23T05:41:25.570Z,-2.21
2023-01-23T05:43:52.497Z,-2.22
2023-01-23T05:46:19.236Z,-2.22
2023-01-23T05:48:50.634Z,-2.23
2023-01-23T05:51:18.251Z,-2.25
2023-01-23T05:53:45.276Z,-2.26
2023-01-23T05:56:14.909Z,-2.29
2023-01-23T05:58:43.697Z,-2.29
2023-01-23T06:01:10.393Z,-2.28
2023-01-23T06:03:37.155Z,-2.27
2023-01-23T06:06:04.075Z,-2.29
2023-01-23T06:08:30.979Z,-2.29
2023-01-23T06:10:59.407Z,-2.45
2023-01-23T06:13:27.290Z,-2.31
2023-01-23T06:15:54.697Z,-2.34
2023-01-23T06:18:22.105Z,-2.36
2023-01-23T06:20:48.954Z,-2.36
2023-01-23T06:23:16.986Z,-2.38
2023-01-23T06:25:43.861Z,-2.39
2023-01-23T06:28:10.536Z,-2.43
2023-01-23T06:30:37.601Z,-2.43
2023-01-23T06:33:04.509Z,-2.44
2023-01-23T06:35:31.387Z,-2.43
2023-01-23T06:37:58.122Z,-2.42
2023-01-23T06:40:25.054Z,-2.40
2023-01-23T06:42:55.519Z,-2.45
2023-01-23T06:45:22.544Z,-2.46
2023-01-23T06:47:49.415Z,-2.45
2023-01-23T06:50:17.048Z,-2.46
2023-01-23T06:52:43.845Z,-2.41
2023-01-23T06:55:10.936Z,-2.40
2023-01-23T06:57:37.684Z,-2.38
2023-01-23T07:00:05.057Z,-2.37
2023-01-23T07:02:31.858Z,-2.38
2023-01-23T07:04:58.718Z,-2.37
2023-01-23T07:07:25.481Z,-2.40
2023-01-23T07:09:53.453Z,-2.35
2023-01-23T07:12:20.264Z,-2.36
2023-01-23T07:14:47.001Z,-2.33
2023-01-23T07:17:15.725Z,-2.29
2023-01-23T07:19:42.471Z,-2.32
2023-01-23T07:22:09.239Z,-2.34
2023-01-23T07:24:35.979Z,-2.35
2023-01-23T07:27:02.814Z,-2.30
2023-01-23T07:29:29.727Z,-2.36
2023-01-23T07:32:00.809Z,-2.51
2023-01-23T07:34:28.087Z,-2.33
2023-01-23T07:36:54.815Z,-2.31
2023-01-23T07:39:24.109Z,-2.28
2023-01-23T07:41:51.200Z,-2.29
2023-01-23T07:44:20.663Z,-2.34
2023-01-23T07:46:48.519Z,-2.28
2023-01-23T07:49:15.835Z,-2.26
2023-01-23T07:51:42.723Z,-2.23
2023-01-23T07:54:10.319Z,-2.18
2023-01-23T07:56:37.432Z,-2.21
2023-01-23T07:59:04.177Z,-2.24
2023-01-23T08:01:32.002Z,-2.27
2023-01-23T08:03:58.836Z,-2.26
2023-01-23T08:06:25.608Z,-2.23
2023-01-23T08:08:52.452Z,-2.20
2023-01-23T08:11:19.579Z,-2.21
2023-01-23T08:16:31.000Z,-2.30
2023-01-23T08:18:57.767Z,-2.28
2023-01-23T08:21:27.675Z,-2.36
2023-01-23T08:23:55.695Z,-2.46
2023-01-23T08:26:22.539Z,-2.40
2023-01-23T08:28:49.297Z,-2.32
2023-01-23T08:31:16.181Z,-2.28
2023-01-23T08:33:45.308Z,-2.33
2023-01-23T08:36:12.962Z,-2.39
2023-01-23T08:38:40.084Z,-2.53
2023-01-23T08:41:07.104Z,-2.72
2023-01-23T08:43:38.595Z,-2.65
2023-01-23T08:46:05.483Z,-2.61
2023-01-23T08:48:34.348Z,-2.60
2023-01-23T08:51:13.238Z,-2.57
2023-01-23T08:53:40.399Z,-2.73
2023-01-23T08:56:10.960Z,-2.54
2023-01-23T08:58:37.725Z,-2.52
2023-01-23T09:01:04.770Z,-2.54
2023-01-23T09:03:31.532Z,-2.54
2023-01-23T09:06:02.440Z,-2.48
2023-01-23T09:08:29.235Z,-2.61
2023-01-23T09:11:03.808Z,-2.41
2023-01-23T09:13:33.766Z,-2.36
2023-01-23T09:16:01.082Z,-2.31
2023-01-23T09:18:28.123Z,-2.20
2023-01-23T09:20:55.550Z,-2.13
2023-01-23T09:23:23.174Z,-2.15
2023-01-23T09:25:50.696Z,-2.20
2023-01-23T09:28:17.441Z,-2.07
2023-01-23T09:30:45.417Z,-2.03
2023-01-23T09:33:12.210Z,-2.04
2023-01-23T09:35:38.967Z,-2.05
2023-01-23T09:38:07.743Z,-2.06
2023-01-23T09:40:45.889Z,-2.06
2023-01-23T09:43:22.875Z,-2.06
2023-01-23T09:46:18.562Z,-2.06
2023-01-23T09:48:46.484Z,-2.07
2023-01-23T09:51:29.195Z,-2.15
2023-01-23T09:54:04.941Z,-2.17
2023-01-23T09:56:36.588Z,-2.15
2023-01-23T09:59:03.316Z,-2.20
2023-01-23T10:01:31.352Z,-2.26
2023-01-23T10:04:00.524Z,-2.19
2023-01-23T10:06:32.662Z,-2.19
2023-01-23T10:10:08.233Z,-2.13
2023-01-23T10:12:57.832Z,-2.15
2023-01-23T10:15:53.701Z,-2.14
2023-01-23T10:18:48.387Z,-2.23
2023-01-23T10:21:24.199Z,-2.30
2023-01-23T10:24:23.789Z,-2.32
2023-01-23T10:26:50.978Z,-2.32
2023-01-23T10:29:39.000Z,-2.28
2023-01-23T10:32:25.642Z,-2.27
2023-01-23T10:35:08.199Z,-2.33
2023-01-23T10:37:43.248Z,-2.34
2023-01-23T10:40:15.454Z,-2.23
2023-01-23T10:45:23.204Z,-2.24
2023-01-23T10:47:55.100Z,-2.30
2023-01-23T10:50:39.647Z,-2.30
2023-01-23T10:53:20.365Z,-2.29
2023-01-23T10:55:48.444Z,-2.29
2023-01-23T10:58:41.336Z,-2.24
2023-01-23T11:01:27.014Z,-2.35
2023-01-23T11:03:56.116Z,-2.34
2023-01-23T11:06:26.096Z,-2.32
2023-01-23T11:08:57.478Z,-2.30
2023-01-23T11:11:29.093Z,-2.31
2023-01-23T11:14:21.812Z,-2.30
2023-01-23T11:17:00.665Z,-2.28
2023-01-23T11:19:27.409Z,-2.24
2023-01-23T11:21:59.862Z,-2.24
2023-01-23T11:24:41.113Z,-2.20
2023-01-23T11:27:26.635Z,-2.18
2023-01-23T11:30:00.309Z,-2.19
2023-01-23T11:32:29.239Z,-2.17
2023-01-23T11:35:03.041Z,-2.15
2023-01-23T11:37:37.458Z,-2.14
2023-01-23T11:40:16.988Z,-2.08
2023-01-23T11:42:44.316Z,-2.10
2023-01-23T11:45:49.659Z,-2.11
2023-01-23T11:48:31.269Z,-2.16
2023-01-23T11:51:15.367Z,-2.20
2023-01-23T11:53:43.725Z,-2.15
2023-01-23T11:56:48.282Z,-2.10
2023-01-23T11:59:24.943Z,-2.06
2023-01-23T12:02:03.425Z,-2.01
2023-01-23T12:04:58.467Z,-1.98
2023-01-23T12:07:25.919Z,-1.94
2023-01-23T12:10:25.249Z,-1.93
2023-01-23T12:13:08.642Z,-1.97
2023-01-23T12:16:16.189Z,-2.05
2023-01-23T12:18:53.888Z,-2.06
2023-01-23T12:21:46.087Z,-2.03
2023-01-23T12:24:43.610Z,-1.99
2023-01-23T12:27:20.708Z,-1.99
2023-01-23T12:30:08.586Z,-2.00
2023-01-23T12:32:50.444Z,-2.03
2023-01-23T12:35:23.063Z,-1.99
2023-01-23T12:38:01.818Z,-1.94
2023-01-23T12:40:48.787Z,-1.94
2023-01-23T12:44:02.589Z,-1.96
2023-01-23T12:46:38.378Z,-1.99
2023-01-23T12:49:29.823Z,-1.96
2023-01-23T12:52:14.783Z,-2.05
2023-01-23T12:54:46.920Z,-2.07
2023-01-23T12:57:14.496Z,-2.01
2023-01-23T12:59:50.221Z,-2.01
2023-01-23T13:02:30.792Z,-2.04
2023-01-23T13:05:19.969Z,-1.98
2023-01-23T13:08:16.035Z,-1.92
2023-01-23T13:11:32.169Z,-1.96
2023-01-23T13:14:00.764Z,-1.87
2023-01-23T13:16:31.144Z,-1.86
2023-01-23T13:19:20.385Z,-1.90
2023-01-23T13:22:26.943Z,-1.87
2023-01-23T13:25:17.637Z,-1.86
2023-01-23T13:27:55.717Z,-1.88
2023-01-23T13:30:26.179Z,-1.91
2023-01-23T13:32:55.414Z,-1.94
2023-01-23T13:35:42.139Z,-1.90
2023-01-23T13:38:32.956Z,-1.84
2023-01-23T13:41:05.625Z,-1.85
2023-01-23T13:43:50.330Z,-1.88
2023-01-23T13:46:32.272Z,-1.91
2023-01-23T14:21:42.591Z,-1.97
2023-01-23T14:24:25.044Z,-1.98
2023-01-23T14:27:02.490Z,-2.00
2023-01-23T14:29:31.314Z,-1.94
2023-01-23T14:31:58.132Z,-1.93
2023-01-23T14:34:26.500Z,-1.91
2023-01-23T14:37:10.873Z,-1.86
2023-01-23T14:39:39.821Z,-1.93
2023-01-23T14:42:11.614Z,-1.92
2023-01-23T14:44:47.217Z,-1.98
2023-01-23T14:47:25.523Z,-1.88
2023-01-23T14:49:53.896Z,-1.82
2023-01-23T14:52:26.160Z,-1.85
2023-01-23T14:54:54.379Z,-1.87
2023-01-23T14:57:24.055Z,-1.97
2023-01-23T14:59:55.405Z,-1.81
2023-01-23T15:02:31.532Z,-1.82
2023-01-23T15:08:20.506Z,-1.94
2023-01-23T15:10:50.817Z,-1.78
2023-01-23T15:13:40.515Z,-1.76
2023-01-23T15:16:14.827Z,-1.76
2023-01-23T15:19:09.679Z,-1.76
2023-01-23T15:21:40.062Z,-1.73
2023-01-23T15:24:09.600Z,-1.74
2023-01-23T15:26:38.100Z,-1.75
2023-01-23T15:29:22.791Z,-1.75
2023-01-23T15:31:55.880Z,-1.78
2023-01-23T15:34:36.196Z,-1.89
2023-01-23T15:37:22.115Z,-1.89
2023-01-23T15:40:02.860Z,-1.89
2023-01-23T15:42:35.123Z,-1.92
2023-01-23T15:45:34.734Z,-1.89
2023-01-23T15:48:01.523Z,-1.90
2023-01-23T15:50:31.821Z,-1.84
2023-01-23T15:53:01.052Z,-1.79
2023-01-23T15:55:54.859Z,-1.75
2023-01-23T15:58:25.142Z,-1.67
2023-01-23T16:00:52.572Z,-1.65
2023-01-23T16:03:19.370Z,-1.69
2023-01-23T16:05:48.491Z,-1.69
2023-01-23T16:08:26.151Z,-1.68
2023-01-23T16:10:55.944Z,-1.65
2023-01-23T16:13:22.791Z,-1.61
2023-01-23T16:15:58.163Z,-1.61
2023-01-23T16:18:26.459Z,-1.67
2023-01-23T16:20:54.342Z,-1.73
2023-01-23T16:23:47.149Z,-1.73
2023-01-23T16:26:31.733Z,-1.66
2023-01-23T16:29:30.886Z,-1.61
2023-01-23T16:32:01.648Z,-1.61
2023-01-23T16:34:28.815Z,-1.67
2023-01-23T16:37:06.984Z,-1.70
2023-01-23T16:39:36.764Z,-1.71
2023-01-23T16:42:05.185Z,-1.67
2023-01-23T16:44:44.930Z,-1.62
2023-01-23T16:47:14.587Z,-1.61
2023-01-23T16:49:59.192Z,-1.62
2023-01-23T16:52:35.729Z,-1.60
2023-01-23T16:55:32.779Z,-1.62
2023-01-23T16:58:03.094Z,-1.62
2023-01-23T17:00:49.635Z,-1.60
2023-01-23T17:03:32.568Z,-1.57
2023-01-23T17:06:00.167Z,-1.66
2023-01-23T17:08:27.547Z,-1.59
2023-01-23T17:10:58.629Z,-1.64
2023-01-23T17:13:30.108Z,-1.82
2023-01-23T17:15:57.288Z,-1.69
2023-01-23T17:18:31.595Z,-1.71
2023-01-23T17:20:58.989Z,-1.78
2023-01-23T17:23:26.046Z,-1.75
2023-01-23T17:26:00.919Z,-1.68
2023-01-23T17:28:34.610Z,-1.64
2023-01-23T17:31:01.516Z,-1.65
2023-01-23T17:33:32.053Z,-1.60
2023-01-23T17:36:01.070Z,-1.60
2023-01-23T17:38:33.267Z,-1.59
2023-01-23T17:41:00.130Z,-1.62
2023-01-23T17:43:29.279Z,-1.65
2023-01-23T17:45:56.128Z,-1.67
2023-01-23T17:48:29.392Z,-1.63
2023-01-23T17:50:56.340Z,-1.66
2023-01-23T17:53:24.140Z,-1.55
2023-01-23T17:55:52.885Z,-1.53
2023-01-23T17:58:20.883Z,-1.63
2023-01-23T18:00:51.002Z,-1.53
2023-01-23T18:03:22.064Z,-1.54
2023-01-23T18:05:49.080Z,-1.54
2023-01-23T18:08:18.478Z,-1.55
2023-01-23T18:10:47.605Z,-1.71
2023-01-23T18:13:18.703Z,-1.57
2023-01-23T18:15:54.533Z,-1.59
2023-01-23T18:18:32.722Z,-1.60
2023-01-23T18:21:03.666Z,-1.63
2023-01-23T18:23:37.994Z,-1.63
2023-01-23T18:26:22.728Z,-1.56
2023-01-23T18:28:52.505Z,-1.52
2023-01-23T18:31:54.119Z,-1.53
2023-01-23T18:34:47.493Z,-1.54
2023-01-23T18:37:50.092Z,-1.56
2023-01-23T18:40:39.094Z,-1.53
2023-01-23T18:43:38.652Z,-1.52
2023-01-23T18:46:20.767Z,-1.54
2023-01-23T18:48:49.611Z,-1.56
2023-01-23T18:51:32.990Z,-1.59
2023-01-23T18:54:05.980Z,-1.62
2023-01-23T18:56:44.515Z,-1.65
2023-01-23T18:59:26.557Z,-1.63
2023-01-23T19:02:28.933Z,-1.71
2023-01-23T19:05:02.370Z,-1.68
2023-01-23T19:07:32.980Z,-1.66
2023-01-23T19:09:59.946Z,-1.66
2023-01-23T19:12:38.054Z,-1.69
2023-01-23T19:15:19.811Z,-1.59
2023-01-23T19:18:00.418Z,-1.57
2023-01-23T19:20:35.351Z,-1.60
2023-01-23T19:23:17.676Z,-1.63
2023-01-23T19:25:48.057Z,-1.57
2023-01-23T19:28:15.896Z,-1.53
2023-01-23T19:30:43.270Z,-1.53
2023-01-23T19:33:17.935Z,-1.54
2023-01-23T19:35:46.791Z,-1.54
2023-01-23T19:38:15.314Z,-1.63
2023-01-23T19:40:43.953Z,-1.59
2023-01-23T19:43:19.934Z,-1.59
2023-01-23T19:45:47.367Z,-1.58
2023-01-23T19:48:14.203Z,-1.67
2023-01-23T19:50:41.290Z,-1.61
2023-01-23T19:53:10.048Z,-1.60
2023-01-23T19:55:39.771Z,-1.59
2023-01-23T19:58:06.840Z,-1.61
2023-01-23T20:00:37.746Z,-1.62
2023-01-23T20:03:05.144Z,-1.57
2023-01-23T20:05:32.449Z,-1.51
2023-01-23T20:07:59.269Z,-1.52
2023-01-23T20:10:26.178Z,-1.56
2023-01-23T20:12:54.341Z,-1.51
2023-01-23T20:15:24.877Z,-1.49
2023-01-23T20:17:55.413Z,-1.48
2023-01-23T20:20:24.594Z,-1.43
2023-01-23T20:22:53.267Z,-1.42
2023-01-23T20:25:20.376Z,-1.43
2023-01-23T20:27:49.775Z,-1.41
2023-01-23T20:30:19.541Z,-1.38
2023-01-23T20:32:46.826Z,-1.36
2023-01-23T20:35:13.664Z,-1.36
2023-01-23T20:37:40.468Z,-1.33
2023-01-23T20:40:09.038Z,-1.32
2023-01-23T20:42:37.815Z,-1.31
2023-01-23T20:45:07.294Z,-1.30
2023-01-23T20:47:35.928Z,-1.27
2023-01-23T20:50:03.031Z,-1.29
2023-01-23T20:52:48.860Z,-1.30
2023-01-23T20:55:23.405Z,-1.32
2023-01-23T20:58:08.740Z,-1.28
2023-01-23T21:00:35.504Z,-1.28
2023-01-23T21:03:02.443Z,-1.25
2023-01-23T21:05:31.624Z,-1.24
2023-01-23T21:07:58.420Z,-1.26
2023-01-23T21:10:25.167Z,-1.31
2023-01-23T21:12:53.203Z,-1.35
2023-01-23T21:15:26.853Z,-1.33
2023-01-23T21:17:53.548Z,-1.29
2023-01-23T21:20:20.467Z,-1.28
2023-01-23T21:22:47.669Z,-1.24
2023-01-23T21:25:14.553Z,-1.22
2023-01-23T21:27:41.329Z,-1.24
2023-01-23T21:30:08.779Z,-1.26
2023-01-23T21:32:35.529Z,-1.24
2023-01-23T21:35:02.367Z,-1.23
2023-01-23T21:37:29.758Z,-1.19
2023-01-23T21:39:56.523Z,-1.20
2023-01-23T21:42:23.365Z,-1.21
2023-01-23T21:44:52.678Z,-1.22
2023-01-23T21:50:02.933Z,-1.18
2023-01-23T21:52:32.139Z,-1.19
2023-01-23T21:54:58.862Z,-1.14
2023-01-23T21:57:25.589Z,-1.18
2023-01-23T22:00:13.856Z,-1.19
2023-01-23T22:02:41.004Z,-1.18
2023-01-23T22:05:08.245Z,-1.14
2023-01-23T22:07:35.045Z,-1.25
2023-01-23T22:10:01.871Z,-1.09
2023-01-23T22:12:29.693Z,-1.11
2023-01-23T22:14:56.384Z,-1.10
2023-01-23T22:17:23.070Z,-1.10
2023-01-23T22:19:50.898Z,-1.13
2023-01-23T22:22:19.185Z,-1.13
2023-01-23T22:24:45.848Z,-1.20
2023-01-23T22:27:12.546Z,-1.13
2023-01-23T22:29:39.299Z,-1.10
2023-01-23T22:32:06.166Z,-1.07
2023-01-23T22:34:33.160Z,-1.02
2023-01-23T22:36:59.894Z,-1.07
2023-01-23T22:39:27.094Z,-1.08
2023-01-23T22:41:53.864Z,-1.07
2023-01-23T22:44:20.606Z,-1.06
2023-01-23T22:46:50.435Z,-1.23
2023-01-23T22:49:17.245Z,-1.08
2023-01-23T22:51:43.977Z,-1.09
2023-01-23T22:54:10.847Z,-1.15
2023-01-23T22:56:38.139Z,-1.11
2023-01-23T22:59:04.911Z,-1.16
2023-01-23T23:01:31.791Z,-1.17
2023-01-23T23:03:59.847Z,-1.15
2023-01-23T23:06:27.453Z,-1.13
2023-01-23T23:08:56.155Z,-1.14
2023-01-23T23:11:26.015Z,-1.13
2023-01-23T23:13:53.846Z,-1.26
2023-01-23T23:16:26.289Z,-1.13
2023-01-23T23:18:55.112Z,-1.14
2023-01-23T23:21:25.301Z,-1.11
2023-01-23T23:23:56.738Z,-1.14
2023-01-23T23:26:24.972Z,-1.09
2023-01-23T23:31:41.267Z,-1.16
2023-01-23T23:34:08.701Z,-1.20
2023-01-23T23:36:35.708Z,-1.23
2023-01-23T23:39:02.536Z,-1.21
2023-01-23T23:41:29.308Z,-1.19
2023-01-23T23:43:56.093Z,-1.19
2023-01-23T23:46:22.790Z,-1.18
2023-01-23T23:48:49.531Z,-1.19
2023-01-23T23:51:18.893Z,-1.20
2023-01-23T23:53:46.331Z,-1.22
2023-01-23T23:56:28.389Z,-1.26
2023-01-23T23:58:56.067Z,-1.28
